RJEB(METAR)
05/26 16:00
METAR RJEB 260700Z 09005KT 050V120 9999 FEW018 SCT060 11/08 Q1006
RMK 1ST018 3CU060 A2972=
戻る
トップページへ戻る
IMOC Co,.Ltd.